createdAt,value
2017-07-08T00:00:12.169Z,88.50
2017-07-08T00:02:40.528Z,89.00
2017-07-08T00:05:08.142Z,89.10
2017-07-08T00:07:35.766Z,89.20
2017-07-08T00:10:03.314Z,88.90
2017-07-08T00:12:30.893Z,89.00
2017-07-08T00:14:58.536Z,90.10
2017-07-08T00:17:26.116Z,89.80
2017-07-08T00:19:53.685Z,90.40
2017-07-08T00:22:21.263Z,90.20
2017-07-08T00:24:49.609Z,91.10
2017-07-08T00:27:17.357Z,91.10
2017-07-08T00:29:45.014Z,91.10
2017-07-08T00:32:12.607Z,91.00
2017-07-08T00:34:40.177Z,91.30
2017-07-08T00:37:07.755Z,91.10
2017-07-08T00:39:36.106Z,91.40
2017-07-08T00:42:03.704Z,91.40
2017-07-08T00:44:32.031Z,91.60
2017-07-08T00:46:59.634Z,91.60
2017-07-08T00:49:27.225Z,92.10
2017-07-08T00:51:54.842Z,92.30
2017-07-08T00:54:22.423Z,92.70
2017-07-08T00:56:50.890Z,92.70
2017-07-08T00:59:18.515Z,92.60
2017-07-08T01:01:46.122Z,92.60
2017-07-08T01:04:13.669Z,92.60
2017-07-08T01:06:41.259Z,92.70
2017-07-08T01:09:09.601Z,92.40
2017-07-08T01:11:37.241Z,92.60
2017-07-08T01:14:04.807Z,92.40
2017-07-08T01:16:32.391Z,92.90
2017-07-08T01:18:59.944Z,92.50
2017-07-08T01:21:27.526Z,92.90
2017-07-08T01:23:55.092Z,93.10
2017-07-08T01:26:22.684Z,92.50
2017-07-08T01:28:50.438Z,92.80
2017-07-08T01:31:18.012Z,93.10
2017-07-08T01:33:45.715Z,93.50
2017-07-08T01:36:13.274Z,93.10
2017-07-08T01:38:41.684Z,93.80
2017-07-08T01:41:09.267Z,93.90
2017-07-08T01:43:36.836Z,94.00
2017-07-08T01:46:04.467Z,94.00
2017-07-08T01:48:32.049Z,93.80
2017-07-08T01:50:59.622Z,93.70
2017-07-08T01:53:27.177Z,93.90
2017-07-08T01:55:54.819Z,94.30
2017-07-08T01:58:22.400Z,93.40
2017-07-08T02:00:50.118Z,94.00
2017-07-08T02:03:18.467Z,94.10
2017-07-08T02:05:46.022Z,94.00
2017-07-08T02:08:15.210Z,94.90
2017-07-08T02:10:42.853Z,94.60
2017-07-08T02:13:10.426Z,94.60
2017-07-08T02:15:38.003Z,94.40
2017-07-08T02:18:05.578Z,94.60
2017-07-08T02:20:33.177Z,94.80
2017-07-08T02:23:01.525Z,94.50
2017-07-08T02:25:29.075Z,94.40
2017-07-08T02:27:56.746Z,95.20
2017-07-08T02:30:24.333Z,95.20
2017-07-08T02:32:51.930Z,95.30
2017-07-08T02:35:19.699Z,95.30
2017-07-08T02:37:47.289Z,95.30
2017-07-08T02:40:14.883Z,95.30
2017-07-08T02:42:43.409Z,95.50
2017-07-08T02:45:10.975Z,95.10
2017-07-08T02:47:38.571Z,95.30
2017-07-08T02:50:06.266Z,95.20
2017-07-08T02:52:34.687Z,97.00
2017-07-08T02:55:02.264Z,97.00
2017-07-08T02:57:29.847Z,95.40
2017-07-08T02:59:57.442Z,95.60
2017-07-08T03:02:25.006Z,95.70
2017-07-08T03:04:52.621Z,95.80
2017-07-08T03:07:20.181Z,96.40
2017-07-08T03:09:47.789Z,96.00
2017-07-08T03:12:15.414Z,95.50
2017-07-08T03:14:43.031Z,96.20
2017-07-08T03:17:10.593Z,96.10
2017-07-08T03:19:38.182Z,95.80
2017-07-08T03:22:05.778Z,95.60
2017-07-08T03:24:33.337Z,96.20
2017-07-08T03:27:00.896Z,95.80
2017-07-08T03:29:28.479Z,96.10
2017-07-08T03:31:56.822Z,96.80
2017-07-08T03:34:24.411Z,96.70
2017-07-08T03:36:53.210Z,97.50
2017-07-08T03:39:21.561Z,97.60
2017-07-08T03:41:49.133Z,97.60
2017-07-08T03:44:16.690Z,97.90
2017-07-08T03:46:44.295Z,97.10
2017-07-08T03:49:11.850Z,96.50
2017-07-08T03:51:39.438Z,96.70
2017-07-08T03:54:07.003Z,96.20
2017-07-08T03:56:34.583Z,95.90
2017-07-08T03:59:02.173Z,96.30
2017-07-08T04:01:29.768Z,96.00
2017-07-08T04:03:57.364Z,95.60
2017-07-08T04:06:24.932Z,95.60
2017-07-08T04:08:52.547Z,95.20
2017-07-08T04:11:20.945Z,94.90
2017-07-08T04:13:48.505Z,94.90
2017-07-08T04:16:16.098Z,94.10
2017-07-08T04:18:43.657Z,94.40
2017-07-08T04:21:11.263Z,94.40
2017-07-08T04:23:39.595Z,94.30
2017-07-08T04:26:07.170Z,94.30
2017-07-08T04:28:34.751Z,94.60
2017-07-08T04:31:02.323Z,94.30
2017-07-08T04:33:30.895Z,94.10
2017-07-08T04:35:58.468Z,94.20
2017-07-08T04:38:26.055Z,94.20
2017-07-08T04:40:54.417Z,93.60
2017-07-08T04:43:22.021Z,93.60
2017-07-08T04:45:49.579Z,94.00
2017-07-08T04:48:17.155Z,93.80
2017-07-08T04:50:44.737Z,93.90
2017-07-08T04:53:12.297Z,93.80
2017-07-08T04:55:39.884Z,93.70
2017-07-08T04:58:07.444Z,93.80
2017-07-08T05:00:35.034Z,93.10
2017-07-08T05:03:02.599Z,93.00
2017-07-08T05:05:30.171Z,92.20
2017-07-08T05:07:57.782Z,91.80
2017-07-08T05:10:25.349Z,90.80
2017-07-08T05:12:52.919Z,90.80
2017-07-08T05:15:20.495Z,91.10
2017-07-08T05:17:48.830Z,90.90
2017-07-08T05:20:16.483Z,90.90
2017-07-08T05:22:44.140Z,90.40
2017-07-08T05:25:11.707Z,90.40
2017-07-08T05:27:39.475Z,90.30
2017-07-08T05:30:07.055Z,90.20
2017-07-08T05:32:34.605Z,90.30
2017-07-08T05:35:02.188Z,89.80
2017-07-08T05:37:29.817Z,89.30
2017-07-08T05:39:57.396Z,88.90
2017-07-08T05:42:25.088Z,89.20
2017-07-08T05:44:52.695Z,89.30
2017-07-08T05:47:20.219Z,88.80
2017-07-08T05:49:47.786Z,88.40
2017-07-08T05:52:15.370Z,88.30
2017-07-08T05:54:42.931Z,87.00
2017-07-08T05:57:10.672Z,88.20
2017-07-08T05:59:38.259Z,87.40
2017-07-08T06:02:06.137Z,87.20
2017-07-08T06:04:33.872Z,85.80
2017-07-08T06:07:01.439Z,86.30
2017-07-08T06:09:29.114Z,84.30
2017-07-08T06:11:56.683Z,82.70
2017-07-08T06:14:24.235Z,81.70
2017-07-08T06:16:51.823Z,81.40
2017-07-08T06:19:20.230Z,77.00
2017-07-08T06:21:47.813Z,76.20
2017-07-08T06:24:15.417Z,75.80
2017-07-08T06:26:42.980Z,72.90
2017-07-08T06:29:10.616Z,71.20
2017-07-08T06:31:39.080Z,71.90
2017-07-08T06:34:06.707Z,71.80
2017-07-08T06:36:35.093Z,69.90
2017-07-08T06:39:03.466Z,69.40
2017-07-08T06:41:32.062Z,70.10
2017-07-08T06:44:01.007Z,70.70
2017-07-08T06:46:28.590Z,71.20
2017-07-08T06:48:56.932Z,70.70
2017-07-08T06:51:24.535Z,70.90
2017-07-08T06:53:52.098Z,70.40
2017-07-08T06:56:19.678Z,69.60
2017-07-08T06:58:48.009Z,69.20
2017-07-08T07:01:15.783Z,69.00
2017-07-08T07:03:43.349Z,67.50
2017-07-08T07:06:11.626Z,69.30
2017-07-08T07:08:39.242Z,67.20
2017-07-08T07:11:07.566Z,68.80
2017-07-08T07:13:35.160Z,68.70
2017-07-08T07:16:02.833Z,70.20
2017-07-08T07:18:30.415Z,67.30
2017-07-08T07:20:58.047Z,65.30
2017-07-08T07:23:25.593Z,60.30
2017-07-08T07:25:53.436Z,58.40
2017-07-08T07:28:21.020Z,54.20
2017-07-08T07:30:48.683Z,51.60
2017-07-08T07:33:16.293Z,51.40
2017-07-08T07:35:44.682Z,49.20
2017-07-08T07:38:12.794Z,49.20
2017-07-08T07:40:40.372Z,49.80
2017-07-08T07:43:08.959Z,49.00
2017-07-08T07:45:36.801Z,47.70
2017-07-08T07:48:04.468Z,46.50
2017-07-08T07:50:32.041Z,43.70
2017-07-08T07:52:59.637Z,44.80
2017-07-08T07:55:27.221Z,44.40
2017-07-08T07:57:55.623Z,37.10
2017-07-08T08:00:23.203Z,37.10
2017-07-08T08:02:50.787Z,37.50
2017-07-08T08:05:18.453Z,37.90
2017-07-08T08:07:46.070Z,40.00
2017-07-08T08:10:13.687Z,38.50
2017-07-08T08:12:41.268Z,36.20
2017-07-08T08:15:08.846Z,37.80
2017-07-08T08:17:37.186Z,40.70
2017-07-08T08:20:04.783Z,40.70
2017-07-08T08:22:33.172Z,40.10
2017-07-08T08:25:01.024Z,40.00
2017-07-08T08:27:30.983Z,39.70
2017-07-08T08:29:58.651Z,39.50
2017-07-08T08:32:26.458Z,39.00
2017-07-08T08:34:54.410Z,36.50
2017-07-08T08:37:22.175Z,36.90
2017-07-08T08:39:49.984Z,36.10
2017-07-08T08:42:17.801Z,35.90
2017-07-08T08:44:45.399Z,35.60
2017-07-08T08:47:12.988Z,33.70
2017-07-08T08:49:40.600Z,34.10
2017-07-08T08:52:08.282Z,33.20
2017-07-08T08:54:35.869Z,33.20
2017-07-08T08:57:03.478Z,31.10
2017-07-08T08:59:31.056Z,31.90
2017-07-08T09:01:59.650Z,30.80
2017-07-08T09:04:27.232Z,29.60
2017-07-08T09:06:54.818Z,30.00
2017-07-08T09:09:23.159Z,29.90
2017-07-08T09:11:50.776Z,30.30
2017-07-08T09:14:18.334Z,32.40
2017-07-08T09:16:45.906Z,31.40
2017-07-08T09:19:13.499Z,33.70
2017-07-08T09:21:41.076Z,34.30
2017-07-08T09:24:08.652Z,34.50
2017-07-08T09:26:36.305Z,32.50
2017-07-08T09:29:03.871Z,32.10
2017-07-08T09:31:31.453Z,32.50
2017-07-08T09:33:59.874Z,35.20
2017-07-08T09:36:27.445Z,35.20
2017-07-08T09:38:55.007Z,36.00
2017-07-08T09:41:22.610Z,35.00
2017-07-08T09:43:50.162Z,35.30
2017-07-08T09:46:17.932Z,31.20
2017-07-08T09:48:45.659Z,30.30
2017-07-08T09:51:13.347Z,30.60
2017-07-08T09:53:41.028Z,32.40
2017-07-08T09:56:08.580Z,29.20
2017-07-08T09:58:36.194Z,30.10
2017-07-08T10:01:04.523Z,28.80
2017-07-08T10:03:32.129Z,28.70
2017-07-08T10:06:00.455Z,30.00
2017-07-08T10:08:28.030Z,30.00
2017-07-08T10:10:55.620Z,30.50
2017-07-08T10:13:23.201Z,32.40
2017-07-08T10:15:51.723Z,32.60
2017-07-08T10:18:19.303Z,32.50
2017-07-08T10:20:46.902Z,31.70
2017-07-08T10:23:14.478Z,31.20
2017-07-08T10:25:42.032Z,30.50
2017-07-08T10:28:10.386Z,31.50
2017-07-08T10:30:38.017Z,31.40
2017-07-08T10:33:05.591Z,30.50
2017-07-08T10:35:33.233Z,30.30
2017-07-08T10:38:00.903Z,31.00
2017-07-08T10:40:28.635Z,31.10
2017-07-08T10:42:56.351Z,30.50
2017-07-08T10:45:23.923Z,30.40
2017-07-08T10:47:51.493Z,31.90
2017-07-08T10:50:19.242Z,31.00
2017-07-08T10:52:46.817Z,28.00
2017-07-08T10:55:14.412Z,28.90
2017-07-08T10:57:42.040Z,29.30
2017-07-08T11:00:09.643Z,29.70
2017-07-08T11:02:37.997Z,30.60
2017-07-08T11:05:05.612Z,30.60
2017-07-08T11:07:33.215Z,30.30
2017-07-08T11:10:00.809Z,29.70
2017-07-08T11:12:28.387Z,30.10
2017-07-08T11:14:56.753Z,28.90
2017-07-08T11:17:24.376Z,28.90
2017-07-08T11:19:52.838Z,29.80
2017-07-08T11:22:20.514Z,30.60
2017-07-08T11:24:48.076Z,29.20
2017-07-08T11:27:15.667Z,27.90
2017-07-08T11:29:43.223Z,27.50
2017-07-08T11:32:10.817Z,28.30
2017-07-08T11:34:38.442Z,27.50
2017-07-08T11:37:06.075Z,28.10
2017-07-08T11:39:33.674Z,27.90
2017-07-08T11:42:01.239Z,29.00
2017-07-08T11:44:28.806Z,29.30
2017-07-08T11:46:56.556Z,28.60
2017-07-08T11:49:24.175Z,29.10
2017-07-08T11:51:52.495Z,27.30
2017-07-08T11:54:20.072Z,27.30
2017-07-08T11:56:47.639Z,26.70
2017-07-08T11:59:15.217Z,27.30
2017-07-08T12:01:42.791Z,26.20
2017-07-08T12:04:10.406Z,26.10
2017-07-08T12:06:37.959Z,26.60
2017-07-08T12:09:05.541Z,27.70
2017-07-08T12:11:33.130Z,29.60
2017-07-08T12:14:00.737Z,31.70
2017-07-08T12:16:28.316Z,32.70
2017-07-08T12:18:55.887Z,32.20
2017-07-08T12:21:23.455Z,32.80
2017-07-08T12:23:51.063Z,33.80
2017-07-08T12:26:18.623Z,31.80
2017-07-08T12:28:46.211Z,33.90
2017-07-08T12:31:13.774Z,31.50
2017-07-08T12:33:42.112Z,31.50
2017-07-08T12:36:09.692Z,31.50
2017-07-08T12:38:37.258Z,32.10
2017-07-08T12:41:04.847Z,33.20
2017-07-08T12:43:33.199Z,35.10
2017-07-08T12:46:00.768Z,35.20
2017-07-08T12:48:28.350Z,35.30
2017-07-08T12:50:56.066Z,36.20
2017-07-08T12:53:23.622Z,34.90
2017-07-08T12:55:51.166Z,34.70
2017-07-08T12:58:18.739Z,34.90
2017-07-08T13:00:46.312Z,33.50
2017-07-08T13:03:13.859Z,32.90
2017-07-08T13:05:41.524Z,32.70
2017-07-08T13:08:09.132Z,33.40
2017-07-08T13:10:36.706Z,33.00
2017-07-08T13:13:05.030Z,31.80
2017-07-08T13:15:32.586Z,31.80
2017-07-08T13:18:00.171Z,31.70
2017-07-08T13:20:27.740Z,31.50
2017-07-08T13:22:55.339Z,33.00
2017-07-08T13:25:22.898Z,34.80
2017-07-08T13:27:51.330Z,33.80
2017-07-08T13:30:18.907Z,33.90
2017-07-08T13:32:46.487Z,33.40
2017-07-08T13:35:14.064Z,33.50
2017-07-08T13:37:41.672Z,33.00
2017-07-08T13:40:09.287Z,31.90
2017-07-08T13:42:36.848Z,31.30
2017-07-08T13:45:04.440Z,30.30
2017-07-08T13:47:32.804Z,31.10
2017-07-08T13:50:01.228Z,31.30
2017-07-08T13:52:28.819Z,31.30
2017-07-08T13:54:56.406Z,32.30
2017-07-08T13:57:23.975Z,31.70
2017-07-08T13:59:52.310Z,31.40
2017-07-08T14:02:19.920Z,31.40
2017-07-08T14:04:47.499Z,30.80
2017-07-08T14:07:15.832Z,32.00
2017-07-08T14:09:43.424Z,32.00
2017-07-08T14:12:11.040Z,32.30
2017-07-08T14:14:38.710Z,33.90
2017-07-08T14:17:06.450Z,35.00
2017-07-08T14:19:34.024Z,35.70
2017-07-08T14:22:01.603Z,35.90
2017-07-08T14:24:29.175Z,35.50
2017-07-08T14:26:56.770Z,34.00
2017-07-08T14:29:24.326Z,34.90
2017-07-08T14:31:51.907Z,34.80
2017-07-08T14:34:19.479Z,33.50
2017-07-08T14:36:47.831Z,31.20
2017-07-08T14:39:15.456Z,31.10
2017-07-08T14:41:43.029Z,32.40
2017-07-08T14:44:10.609Z,34.40
2017-07-08T14:46:38.212Z,33.60
2017-07-08T14:49:06.547Z,33.70
2017-07-08T14:51:34.108Z,33.60
2017-07-08T14:54:01.722Z,33.50
2017-07-08T14:56:30.059Z,33.90
2017-07-08T14:58:57.655Z,33.90
2017-07-08T15:01:25.237Z,35.20
2017-07-08T15:03:53.589Z,35.10
2017-07-08T15:06:21.166Z,35.00
2017-07-08T15:08:49.496Z,34.10
2017-07-08T15:11:17.077Z,34.10
2017-07-08T15:13:44.664Z,33.80
2017-07-08T15:16:12.235Z,33.60
2017-07-08T15:18:40.584Z,33.10
2017-07-08T15:21:08.145Z,33.00
2017-07-08T15:23:35.758Z,34.60
2017-07-08T15:26:03.367Z,34.20
2017-07-08T15:28:30.934Z,33.30
2017-07-08T15:30:58.544Z,34.00
2017-07-08T15:33:26.913Z,34.60
2017-07-08T15:35:54.508Z,35.10
2017-07-08T15:38:22.150Z,35.80
2017-07-08T15:40:49.727Z,36.90
2017-07-08T15:43:17.325Z,37.60
2017-07-08T15:45:44.908Z,37.20
2017-07-08T15:48:12.625Z,37.50
2017-07-08T15:50:40.216Z,37.80
2017-07-08T15:53:07.776Z,37.40
2017-07-08T15:55:35.382Z,37.50
2017-07-08T15:58:03.774Z,37.80
2017-07-08T16:00:32.183Z,38.70
2017-07-08T16:02:59.755Z,38.60
2017-07-08T16:05:27.331Z,39.10
2017-07-08T16:07:54.923Z,39.90
2017-07-08T16:10:22.519Z,39.80
2017-07-08T16:12:50.199Z,40.20
2017-07-08T16:15:17.750Z,40.40
2017-07-08T16:17:45.340Z,40.10
2017-07-08T16:20:12.911Z,40.00
2017-07-08T16:22:40.497Z,40.10
2017-07-08T16:25:08.122Z,40.40
2017-07-08T16:27:35.691Z,39.50
2017-07-08T16:30:03.302Z,40.40
2017-07-08T16:32:31.645Z,43.10
2017-07-08T16:34:59.243Z,43.10
2017-07-08T16:37:26.880Z,44.00
2017-07-08T16:39:54.493Z,44.40
2017-07-08T16:42:22.110Z,44.90
2017-07-08T16:44:49.668Z,46.20
2017-07-08T16:47:17.248Z,45.70
2017-07-08T16:49:45.053Z,45.70
2017-07-08T16:52:13.524Z,45.20
2017-07-08T16:54:41.875Z,45.20
2017-07-08T16:57:09.428Z,45.20
2017-07-08T16:59:37.051Z,46.20
2017-07-08T17:02:04.597Z,46.50
2017-07-08T17:04:32.193Z,46.10
2017-07-08T17:06:59.799Z,46.60
2017-07-08T17:09:27.405Z,46.10
2017-07-08T17:11:54.999Z,47.20
2017-07-08T17:14:22.746Z,46.80
2017-07-08T17:16:50.369Z,47.00
2017-07-08T17:19:18.741Z,48.10
2017-07-08T17:21:46.310Z,47.50
2017-07-08T17:24:14.655Z,48.50
2017-07-08T17:26:42.209Z,48.40
2017-07-08T17:29:09.829Z,48.70
2017-07-08T17:31:37.398Z,49.20
2017-07-08T17:34:05.890Z,49.70
2017-07-08T17:36:34.294Z,50.50
2017-07-08T17:39:01.951Z,50.40
2017-07-08T17:41:29.530Z,50.70
2017-07-08T17:43:57.215Z,50.90
2017-07-08T17:46:24.812Z,51.20
2017-07-08T17:48:52.386Z,51.50
2017-07-08T17:51:20.769Z,52.50
2017-07-08T17:53:49.189Z,52.90
2017-07-08T17:56:16.775Z,52.60
2017-07-08T17:58:44.368Z,52.40
2017-07-08T18:01:11.994Z,53.10
2017-07-08T18:03:39.597Z,52.50
2017-07-08T18:06:07.978Z,52.90
2017-07-08T18:08:36.317Z,52.80
2017-07-08T18:11:03.879Z,52.80
2017-07-08T18:13:31.466Z,53.30
2017-07-08T18:15:59.044Z,53.90
2017-07-08T18:18:26.655Z,53.50
2017-07-08T18:20:54.216Z,53.80
2017-07-08T18:23:21.807Z,53.50
2017-07-08T18:25:49.369Z,54.40
2017-07-08T18:28:16.926Z,54.40
2017-07-08T18:30:44.488Z,55.70
2017-07-08T18:33:12.131Z,56.40
2017-07-08T18:35:39.737Z,55.60
2017-07-08T18:38:07.302Z,57.10
2017-07-08T18:40:34.872Z,57.00
2017-07-08T18:43:03.429Z,58.40
2017-07-08T18:45:31.041Z,58.40
2017-07-08T18:47:58.626Z,57.70
2017-07-08T18:50:26.238Z,58.00
2017-07-08T18:52:53.801Z,57.70
2017-07-08T18:55:21.371Z,57.30
2017-07-08T18:57:48.939Z,57.70
2017-07-08T19:00:16.647Z,57.80
2017-07-08T19:02:44.288Z,58.50
2017-07-08T19:05:11.951Z,58.60
2017-07-08T19:07:39.550Z,58.10
2017-07-08T19:10:07.151Z,58.40
2017-07-08T19:12:34.726Z,58.90
2017-07-08T19:15:03.063Z,58.80
2017-07-08T19:17:30.693Z,58.70
2017-07-08T19:19:58.358Z,59.30
2017-07-08T19:22:26.041Z,59.70
2017-07-08T19:24:53.710Z,59.20
2017-07-08T19:27:21.431Z,59.80
2017-07-08T19:29:49.794Z,60.70
2017-07-08T19:32:17.363Z,60.50
2017-07-08T19:34:44.976Z,61.20
2017-07-08T19:37:12.570Z,61.80
2017-07-08T19:39:40.178Z,62.00
2017-07-08T19:42:08.542Z,62.70
2017-07-08T19:44:36.888Z,62.60
2017-07-08T19:47:04.506Z,62.60
2017-07-08T19:49:32.844Z,64.00
2017-07-08T19:52:00.487Z,64.10
2017-07-08T19:54:28.156Z,63.80
2017-07-08T19:56:55.739Z,64.30
2017-07-08T19:59:23.340Z,63.10
2017-07-08T20:01:51.700Z,64.00
2017-07-08T20:04:20.127Z,64.00
2017-07-08T20:06:47.778Z,65.40
2017-07-08T20:09:15.347Z,65.30
2017-07-08T20:11:42.934Z,66.10
2017-07-08T20:14:11.563Z,67.20
2017-07-08T20:16:39.381Z,67.70
2017-07-08T20:19:07.015Z,68.30
2017-07-08T20:21:34.609Z,69.20
2017-07-08T20:24:02.208Z,69.50
2017-07-08T20:26:29.809Z,70.30
2017-07-08T20:28:57.453Z,70.20
2017-07-08T20:31:25.870Z,71.60
2017-07-08T20:33:53.541Z,71.50
2017-07-08T20:36:21.179Z,71.60
2017-07-08T20:38:48.768Z,71.50
2017-07-08T20:41:16.345Z,71.90
2017-07-08T20:43:43.950Z,72.30
2017-07-08T20:46:12.294Z,73.10
2017-07-08T20:48:39.989Z,73.10
2017-07-08T20:51:07.598Z,73.40
2017-07-08T20:53:35.191Z,73.20
2017-07-08T20:56:02.851Z,72.90
2017-07-08T20:58:30.439Z,72.30
2017-07-08T21:00:58.019Z,71.80
2017-07-08T21:03:26.627Z,72.00
2017-07-08T21:05:54.275Z,72.00
2017-07-08T21:08:21.925Z,72.00
2017-07-08T21:10:49.543Z,72.40
2017-07-08T21:13:17.231Z,72.60
2017-07-08T21:15:45.089Z,73.80
2017-07-08T21:18:12.667Z,74.00
2017-07-08T21:20:40.639Z,75.10
2017-07-08T21:23:08.367Z,75.30
2017-07-08T21:25:35.971Z,75.90
2017-07-08T21:28:03.531Z,76.60
2017-07-08T21:30:34.996Z,77.30
2017-07-08T21:33:12.740Z,77.20
2017-07-08T21:35:40.349Z,78.20
2017-07-08T21:38:07.989Z,78.90
2017-07-08T21:40:35.745Z,78.90
2017-07-08T21:43:03.424Z,79.50
2017-07-08T21:45:31.199Z,79.80
2017-07-08T21:47:59.704Z,81.00
2017-07-08T21:50:27.411Z,80.90
2017-07-08T21:52:55.070Z,81.40
2017-07-08T21:55:24.183Z,82.00
2017-07-08T21:57:51.791Z,82.00
2017-07-08T22:00:19.376Z,81.90
2017-07-08T22:02:47.797Z,82.90
2017-07-08T22:05:15.607Z,82.90
2017-07-08T22:07:43.353Z,83.20
2017-07-08T22:10:10.945Z,83.10
2017-07-08T22:12:38.541Z,83.60
2017-07-08T22:15:06.237Z,82.80
2017-07-08T22:17:33.807Z,83.40
2017-07-08T22:20:01.413Z,83.40
2017-07-08T22:22:29.795Z,83.50
2017-07-08T22:24:58.144Z,83.50
2017-07-08T22:27:25.766Z,83.50
2017-07-08T22:29:53.358Z,84.30
2017-07-08T22:32:20.967Z,83.80
2017-07-08T22:34:49.315Z,84.50
2017-07-08T22:37:16.896Z,84.50
2017-07-08T22:39:45.527Z,85.10
2017-07-08T22:42:13.152Z,85.10
2017-07-08T22:44:41.756Z,85.30
2017-07-08T22:47:10.265Z,86.00
2017-07-08T22:49:37.850Z,86.00
2017-07-08T22:52:05.451Z,85.80
2017-07-08T22:54:33.972Z,85.30
2017-07-08T22:57:01.551Z,85.30
2017-07-08T22:59:29.108Z,86.70
2017-07-08T23:01:56.715Z,86.50
2017-07-08T23:04:25.060Z,86.30
2017-07-08T23:06:52.651Z,86.30
2017-07-08T23:09:20.228Z,87.60
2017-07-08T23:11:48.572Z,88.80
2017-07-08T23:14:16.131Z,88.70
2017-07-08T23:16:43.706Z,88.50
2017-07-08T23:19:11.300Z,88.50
2017-07-08T23:21:39.716Z,88.60
2017-07-08T23:24:07.326Z,88.60
2017-07-08T23:26:34.978Z,88.10
2017-07-08T23:29:02.632Z,89.50
2017-07-08T23:31:30.413Z,88.80
2017-07-08T23:33:58.056Z,89.20
2017-07-08T23:36:25.787Z,89.00
2017-07-08T23:38:53.389Z,89.40
2017-07-08T23:41:20.982Z,89.80
2017-07-08T23:43:49.407Z,89.50
2017-07-08T23:46:17.022Z,89.50
2017-07-08T23:48:44.604Z,89.50
2017-07-08T23:51:12.325Z,89.30
2017-07-08T23:53:39.913Z,89.20
2017-07-08T23:56:07.491Z,89.10
2017-07-08T23:58:36.681Z,89.50
